This is the latest recevied weather packets stored in our database for station/object KE4ODN. If no packets are shown the sender has not sent any weather packets the latest 10 day(s).
| Time | Temp. | Humidity | Pressure | Rain* | Wind** | Luminosity | Snow |
|---|---|---|---|---|---|---|---|
| 1778036644 | 18.89° C | 85% | 1011.6 hPa | 0 mm | - | 0 W/m² | - |
| 1778036404 | 18.89° C | 88% | 1011.4 hPa | 0 mm | - | 0 W/m² | - |
| 1778035705 | 18.89° C | 88% | 1011.3 hPa | 0 mm | - | 0 W/m² | - |
| 1778035444 | 18.89° C | 87% | 1011.3 hPa | 0 mm | - | 0 W/m² | - |
| 1778034484 | 18.89° C | 88% | 1011.4 hPa | 0 mm | - | 0 W/m² | - |
| 1778034244 | 18.89° C | 87% | 1011.3 hPa | 0 mm | - | 0 W/m² | - |
| 1778033764 | 19.44° C | 85% | 1011.2 hPa | 0 mm | - | 0 W/m² | - |
| 1778032825 | 19.44° C | 87% | 1011.2 hPa | 0 mm | - | 0 W/m² | - |
| 1778032564 | 19.44° C | 86% | 1011.2 hPa | 0 mm | - | 0 W/m² | - |
| 1778031124 | 20° C | 84% | 1011.1 hPa | 0 mm | - | 0 W/m² | - |
| 1778030404 | 20° C | 84% | 1011.3 hPa | 0 mm | - | 0 W/m² | - |
| 1778028004 | 21.67° C | 78% | 1010.9 hPa | 0 mm | - | 0 W/m² | - |
| 1778026564 | 22.78° C | 69% | 1010.9 hPa | 0 mm | - | 9 W/m² | - |
| 1778026324 | 22.78° C | 70% | 1010.9 hPa | 0 mm | - | 14 W/m² | - |
| 1778025364 | 23.33° C | 70% | 1011.3 hPa | 0 mm | - | 23 W/m² | - |
| 1778023684 | 23.33° C | 68% | 1011.4 hPa | 0 mm | - | 25 W/m² | - |
| 1778022244 | 23.89° C | 65% | 1011.5 hPa | 0 mm | - | 69 W/m² | - |
| 1778022004 | 23.89° C | 64% | 1011.5 hPa | 0 mm | - | 56 W/m² | - |
| 1778021764 | 23.89° C | 64% | 1011.7 hPa | 0 mm | - | 76 W/m² | - |
| 1778021305 | 23.89° C | 64% | 1011.6 hPa | 0 mm | - | 65 W/m² | - |
| 1778020804 | 23.89° C | 63% | 1011.6 hPa | 0 mm | - | 77 W/m² | - |
| 1778017705 | 23.89° C | 61% | 1011.7 hPa | 0 mm | - | 69 W/m² | - |
| 1778016724 | 24.44° C | 58% | 1011.7 hPa | 0 mm | - | 104 W/m² | - |
| 1778016505 | 24.44° C | 57% | 1011.7 hPa | 0 mm | - | 105 W/m² | - |
| 1778014564 | 25.56° C | 55% | 1011.5 hPa | 0 mm | - | 207 W/m² | - |
* Rain latest hour (hover to see other rain measurements)
** Current wind speed in m/s (hover to see current wind gust speed)